MSC Lea — 9HA2639 — position and weather

sailwx.info

Track history (hours):
 
Tides and Currents Weather Stations Pressure Air Temp Water Temp Dewpoint Dewpoint Depression Visibility Wind Speed Wind Dir Waves Ship Positions

MSC Lea

Last reported at 2017-Sep-18 20:47 UTC. Time now 2017-Sep-22 09:59 UTC.
Position N 31°52' E 034°37'.

Length 216 m; draft 9.2 m.

Type: Ship (hazmat cat A). MMSI: 215101000.

Date/timePositionNaut miles runAvg speedWind from/ knotsBaromVisibWave heightAir tempDewpointWater temp
2017-Sep-18 20:47N 31°52' E 034°37'1 0.0
2017-Sep-18 01:33N 31°52' E 034°37'0 1.8
2017-Sep-18 01:30N 31°52' E 034°37'44 8.2
2017-Sep-17 20:07N 32°36' E 034°43'28 1.3
2017-Sep-16 22:53N 32°59' E 034°25'410.7
2017-Sep-16 22:29N 32°60' E 034°20'610.7
2017-Sep-16 21:58N 33°01' E 034°13'511.0
2017-Sep-16 21:30N 33°01' E 034°07'711.0
2017-Sep-16 20:52N 33°03' E 033°59'  
2017-Sep-14 05:29N 39°16' E 019°22'814.7
2017-Sep-14 04:54N 39°23' E 019°17'614.2
2017-Sep-14 04:30N 39°29' E 019°14'714.2
2017-Sep-14 03:59N 39°36' E 019°11'814.2
2017-Sep-14 03:25N 39°43' E 019°06'614.4
2017-Sep-14 03:01N 39°48' E 019°03'714.7
2017-Sep-14 02:30N 39°54' E 018°58'714.6
2017-Sep-14 02:00N 40°01' E 018°53'714.4
2017-Sep-14 01:30N 40°07' E 018°49'714.4
2017-Sep-14 01:01N 40°13' E 018°45'714.4
2017-Sep-14 00:30N 40°20' E 018°41'714.5
2017-Sep-14 00:00N 40°27' E 018°38'714.5
2017-Sep-13 23:30N 40°32' E 018°31'815.3
2017-Sep-13 23:00N 40°37' E 018°23'815.2
2017-Sep-13 22:30N 40°41' E 018°15'714.8
2017-Sep-13 22:00N 40°46' E 018°07'814.5
2017-Sep-13 21:26N 40°52' E 018°01'714.4
2017-Sep-13 20:56N 40°58' E 017°54'614.6
2017-Sep-13 20:29N 41°02' E 017°48'28514.2
2017-Sep-13 00:26N 44°37' E 013°33'613.7
2017-Sep-13 00:00N 44°42' E 013°28'713.5
2017-Sep-12 23:31N 44°47' E 013°23'713.5
2017-Sep-12 23:01N 44°53' E 013°18'612.8
2017-Sep-12 22:30N 44°55' E 013°09'713.3
2017-Sep-12 22:01N 44°56' E 012°60'713.4
2017-Sep-12 21:30N 44°57' E 012°50'713.5
2017-Sep-12 21:00N 45°02' E 012°45'713.4
2017-Sep-12 20:29N 45°08' E 012°39'613.5
2017-Sep-12 20:00N 45°12' E 012°32'612.7
2017-Sep-12 19:30N 45°17' E 012°26'5 9.1
2017-Sep-12 19:01N 45°20' E 012°21'5 9.5
2017-Sep-12 18:30N 45°22' E 012°15'4 8.0
2017-Sep-12 18:00N 45°26' E 012°16'2 3.0
2017-Sep-12 17:29N 45°27' E 012°15'0 0.0
2017-Sep-12 16:59N 45°27' E 012°15'0 0.0
2017-Sep-12 16:29N 45°27' E 012°15'0 0.0
2017-Sep-12 15:59N 45°27' E 012°15'0 0.0
2017-Sep-12 15:29N 45°27' E 012°15'0 0.0
2017-Sep-12 14:59N 45°27' E 012°15'0 0.0
2017-Sep-12 14:29N 45°27' E 012°15'0 0.0
2017-Sep-12 13:59N 45°27' E 012°15'0 0.0
2017-Sep-12 13:29N 45°27' E 012°15'0 0.0
2017-Sep-12 12:59N 45°27' E 012°15'0 0.0
2017-Sep-12 12:29N 45°27' E 012°15'0 0.0
2017-Sep-12 11:59N 45°27' E 012°15'0 0.0
2017-Sep-12 11:26N 45°27' E 012°15'0 0.0
2017-Sep-12 10:59N 45°27' E 012°15'0 0.0
2017-Sep-12 10:29N 45°27' E 012°15'0 0.0
2017-Sep-12 09:59N 45°27' E 012°15'0 0.0
2017-Sep-12 09:29N 45°27' E 012°15'0 0.0
2017-Sep-12 08:59N 45°27' E 012°15'0 0.0
2017-Sep-12 08:29N 45°27' E 012°15'0 0.0
2017-Sep-12 07:59N 45°27' E 012°15'0 0.0
2017-Sep-12 07:29N 45°27' E 012°15'0 0.0
2017-Sep-12 06:59N 45°27' E 012°15'0 0.0
2017-Sep-12 06:29N 45°27' E 012°15'0 0.0
2017-Sep-12 05:59N 45°27' E 012°15'0 0.9
2017-Sep-12 05:30N 45°27' E 012°16'3 6.5
2017-Sep-12 05:00N 45°24' E 012°16'4 8.0
2017-Sep-12 04:30N 45°20' E 012°18'4 8.9
2017-Sep-12 04:00N 45°19' E 012°25'2 4.4
2017-Sep-12 03:31N 45°18' E 012°27'4 7.4
2017-Sep-12 03:00N 45°17' E 012°32'510.4
2017-Sep-12 02:30N 45°14' E 012°38'510.7
2017-Sep-12 02:01N 45°10' E 012°44'611.0
2017-Sep-12 01:30N 45°07' E 012°50'612.4
2017-Sep-12 01:00N 45°01' E 012°53'611.6
2017-Sep-12 00:30N 44°55' E 012°55'612.1
2017-Sep-12 00:00N 44°50' E 012°51'612.1
2017-Sep-11 23:30N 44°44' E 012°48'611.8
2017-Sep-11 23:00N 44°38' E 012°46'612.0
2017-Sep-11 22:30N 44°33' E 012°43'5 9.8
2017-Sep-11 22:00N 44°34' E 012°37'511.0
2017-Sep-11 21:30N 44°40' E 012°37'612.0
2017-Sep-11 21:00N 44°36' E 012°43'612.1
2017-Sep-11 20:30N 44°31' E 012°49'6 9.6
2017-Sep-11 19:53N 44°25' E 012°50'512.6
2017-Sep-11 19:30N 44°26' E 012°44'612.5
2017-Sep-11 19:00N 44°28' E 012°35'7 0.5
2017-Sep-11 03:54N 44°30' E 012°26'3 7.2
2017-Sep-11 03:30N 44°29' E 012°30'1 1.0
2017-Sep-11 02:59N 44°30' E 012°30'0 0.0
2017-Sep-11 02:26N 44°30' E 012°30'0 0.0
2017-Sep-11 01:44N 44°30' E 012°30'0 0.0
2017-Sep-11 00:53N 44°30' E 012°30'0 0.1
2017-Sep-11 00:14N 44°30' E 012°30'0 0.1
2017-Sep-10 23:59N 44°30' E 012°30'0 0.1
2017-Sep-10 23:17N 44°30' E 012°30'0 0.1
2017-Sep-10 22:53N 44°30' E 012°30'0 0.0
2017-Sep-10 19:40N 44°30' E 012°30'1 3.3
2017-Sep-10 19:23N 44°30' E 012°31'1310.9
2017-Sep-10 18:13N 44°39' E 012°44'314.1
2017-Sep-10 18:00N 44°42' E 012°46'714.1
2017-Sep-10 17:30N 44°48' E 012°50'714.0
2017-Sep-10 17:00N 44°54' E 012°54'713.6
2017-Sep-10 16:30N 45°01' E 012°58'713.4
2017-Sep-10 16:00N 45°07' E 013°01'713.4
2017-Sep-10 15:30N 45°14' E 013°02'713.5
2017-Sep-10 15:00N 45°20' E 013°02'1313.5
2017-Sep-10 14:01N 45°31' E 013°13'714.3
2017-Sep-10 13:31N 45°35' E 013°22'714.4
2017-Sep-10 13:01N 45°38' E 013°32'613.0
2017-Sep-10 12:31N 45°39' E 013°41'4 7.7
2017-Sep-10 12:01N 45°38' E 013°46'0 0.1
2017-Sep-10 11:19N 45°38' E 013°46'0 0.0
2017-Sep-10 10:55N 45°38' E 013°46'0 0.0
2017-Sep-10 10:28N 45°38' E 013°46'0 0.0
2017-Sep-10 09:58N 45°38' E 013°46'0 0.0
2017-Sep-10 09:28N 45°38' E 013°46'0 0.0
2017-Sep-10 08:58N 45°38' E 013°46'0 0.0
2017-Sep-10 08:28N 45°38' E 013°46'0 0.0
2017-Sep-10 07:58N 45°38' E 013°46'0 0.0
2017-Sep-10 07:25N 45°38' E 013°46'0 0.0
2017-Sep-10 06:58N 45°38' E 013°46'0 0.0
2017-Sep-10 06:28N 45°38' E 013°46'0 0.0
2017-Sep-10 05:58N 45°38' E 013°46'0 0.0
2017-Sep-10 05:28N 45°38' E 013°46'0 0.0
2017-Sep-10 04:58N 45°38' E 013°46'0 0.0
2017-Sep-10 04:28N 45°38' E 013°46'0 0.0
2017-Sep-10 03:55N 45°38' E 013°46'0 0.0
2017-Sep-10 03:28N 45°38' E 013°46'0 0.0
2017-Sep-10 02:55N 45°38' E 013°46'0 0.0
2017-Sep-10 02:28N 45°38' E 013°46'0 0.0
2017-Sep-10 01:55N 45°38' E 013°46'0 0.0
2017-Sep-10 01:25N 45°38' E 013°46'0 0.0
2017-Sep-10 00:58N 45°38' E 013°46'0 0.0
2017-Sep-10 00:28N 45°38' E 013°46'0 0.0
2017-Sep-09 23:58N 45°38' E 013°46'0 0.0
2017-Sep-09 23:28N 45°38' E 013°46'0 0.0
2017-Sep-09 22:58N 45°38' E 013°46'0 0.0
2017-Sep-09 22:28N 45°38' E 013°46'0 0.0
2017-Sep-09 21:58N 45°38' E 013°46'0 0.0
2017-Sep-09 21:25N 45°38' E 013°46'0 0.0
2017-Sep-09 20:55N 45°38' E 013°46'0 0.0
2017-Sep-09 20:25N 45°38' E 013°46'0 0.0
2017-Sep-09 19:55N 45°38' E 013°46'0 0.0
2017-Sep-09 19:25N 45°38' E 013°46'0 0.0
2017-Sep-09 18:58N 45°38' E 013°46'0 0.0
2017-Sep-09 18:22N 45°38' E 013°46'0 0.0
2017-Sep-09 17:49N 45°38' E 013°46'0 0.3
2017-Sep-09 17:31N 45°38' E 013°46'2 5.0
2017-Sep-09 17:00N 45°39' E 013°42'4 7.7
2017-Sep-09 16:31N 45°35' E 013°39'4 7.2
2017-Sep-09 16:01N 45°33' E 013°43'1 1.0
2017-Sep-09 15:30N 45°33' E 013°44'0 0.0
2017-Sep-09 15:00N 45°33' E 013°44'0 0.0
2017-Sep-09 14:30N 45°33' E 013°44'0 0.0
2017-Sep-09 14:00N 45°33' E 013°44'0 0.0
2017-Sep-09 13:27N 45°33' E 013°44'0 0.0
2017-Sep-09 12:54N 45°33' E 013°44'0 0.0
2017-Sep-09 12:30N 45°33' E 013°44'0 0.0
2017-Sep-09 12:00N 45°33' E 013°44'0 0.0
2017-Sep-09 11:30N 45°33' E 013°44'0 0.0
2017-Sep-09 11:00N 45°33' E 013°44'0 0.0
2017-Sep-09 10:24N 45°33' E 013°44'0 0.0
2017-Sep-09 10:00N 45°33' E 013°44'0 0.0
2017-Sep-09 09:30N 45°33' E 013°44'0 0.0
2017-Sep-09 09:00N 45°33' E 013°44'0 0.0
2017-Sep-09 08:27N 45°33' E 013°44'0 0.0
2017-Sep-09 08:00N 45°33' E 013°44'0 0.0
2017-Sep-09 07:27N 45°33' E 013°44'0 0.0
2017-Sep-09 07:00N 45°33' E 013°44'0 0.0
2017-Sep-09 06:30N 45°33' E 013°44'0 0.0
2017-Sep-09 06:00N 45°33' E 013°44'0 0.0
2017-Sep-09 05:27N 45°33' E 013°44'0 0.0
2017-Sep-09 04:48N 45°33' E 013°44'0 0.0
2017-Sep-09 04:30N 45°33' E 013°44'0 0.0
2017-Sep-09 04:00N 45°33' E 013°44'0 0.0
2017-Sep-09 03:30N 45°33' E 013°44'2 3.3
2017-Sep-09 03:00N 45°34' E 013°42'3 5.8
2017-Sep-09 02:30N 45°35' E 013°38'510.7
2017-Sep-09 02:00N 45°34' E 013°30'611.5
2017-Sep-09 01:30N 45°31' E 013°24'611.5
2017-Sep-09 01:00N 45°27' E 013°18'611.6
2017-Sep-09 00:30N 45°23' E 013°12'611.5
2017-Sep-09 00:00N 45°17' E 013°13'611.6
2017-Sep-08 23:30N 45°11' E 013°15'611.5
2017-Sep-08 23:00N 45°06' E 013°18'611.7
2017-Sep-08 22:30N 45°01' E 013°21'611.7
2017-Sep-08 22:00N 44°55' E 013°26'611.6
2017-Sep-08 21:30N 44°50' E 013°30'611.6
2017-Sep-08 21:00N 44°45' E 013°34'  
Track history (hours):
 
Tides and Currents Weather Stations Pressure Air Temp Water Temp Dewpoint Dewpoint Depression Visibility Wind Speed Wind Dir Waves Ship Positions

MSC Lea

Last reported at 2017-Sep-18 20:47 UTC. Time now 2017-Sep-22 09:59 UTC.
Position N 31°52' E 034°37'.

Length 216 m; draft 9.2 m.

Type: Ship (hazmat cat A). MMSI: 215101000.

Date/timePositionNaut miles runAvg speedWind from/ knotsBaromVisibWave heightAir tempDewpointWater temp
2017-Sep-18 20:47N 31°52' E 034°37'1 0.0
2017-Sep-18 01:33N 31°52' E 034°37'0 1.8
2017-Sep-18 01:30N 31°52' E 034°37'44 8.2
2017-Sep-17 20:07N 32°36' E 034°43'28 1.3
2017-Sep-16 22:53N 32°59' E 034°25'410.7
2017-Sep-16 22:29N 32°60' E 034°20'610.7
2017-Sep-16 21:58N 33°01' E 034°13'511.0
2017-Sep-16 21:30N 33°01' E 034°07'711.0
2017-Sep-16 20:52N 33°03' E 033°59'  
2017-Sep-14 05:29N 39°16' E 019°22'814.7
2017-Sep-14 04:54N 39°23' E 019°17'614.2
2017-Sep-14 04:30N 39°29' E 019°14'714.2
2017-Sep-14 03:59N 39°36' E 019°11'814.2
2017-Sep-14 03:25N 39°43' E 019°06'614.4
2017-Sep-14 03:01N 39°48' E 019°03'714.7
2017-Sep-14 02:30N 39°54' E 018°58'714.6
2017-Sep-14 02:00N 40°01' E 018°53'714.4
2017-Sep-14 01:30N 40°07' E 018°49'714.4
2017-Sep-14 01:01N 40°13' E 018°45'714.4
2017-Sep-14 00:30N 40°20' E 018°41'714.5
2017-Sep-14 00:00N 40°27' E 018°38'714.5
2017-Sep-13 23:30N 40°32' E 018°31'815.3
2017-Sep-13 23:00N 40°37' E 018°23'815.2
2017-Sep-13 22:30N 40°41' E 018°15'714.8
2017-Sep-13 22:00N 40°46' E 018°07'814.5
2017-Sep-13 21:26N 40°52' E 018°01'714.4
2017-Sep-13 20:56N 40°58' E 017°54'614.6
2017-Sep-13 20:29N 41°02' E 017°48'28514.2
2017-Sep-13 00:26N 44°37' E 013°33'613.7
2017-Sep-13 00:00N 44°42' E 013°28'713.5
2017-Sep-12 23:31N 44°47' E 013°23'713.5
2017-Sep-12 23:01N 44°53' E 013°18'612.8
2017-Sep-12 22:30N 44°55' E 013°09'713.3
2017-Sep-12 22:01N 44°56' E 012°60'713.4
2017-Sep-12 21:30N 44°57' E 012°50'713.5
2017-Sep-12 21:00N 45°02' E 012°45'713.4
2017-Sep-12 20:29N 45°08' E 012°39'613.5
2017-Sep-12 20:00N 45°12' E 012°32'612.7
2017-Sep-12 19:30N 45°17' E 012°26'5 9.1
2017-Sep-12 19:01N 45°20' E 012°21'5 9.5
2017-Sep-12 18:30N 45°22' E 012°15'4 8.0
2017-Sep-12 18:00N 45°26' E 012°16'2 3.0
2017-Sep-12 17:29N 45°27' E 012°15'0 0.0
2017-Sep-12 16:59N 45°27' E 012°15'0 0.0
2017-Sep-12 16:29N 45°27' E 012°15'0 0.0
2017-Sep-12 15:59N 45°27' E 012°15'0 0.0
2017-Sep-12 15:29N 45°27' E 012°15'0 0.0
2017-Sep-12 14:59N 45°27' E 012°15'0 0.0
2017-Sep-12 14:29N 45°27' E 012°15'0 0.0
2017-Sep-12 13:59N 45°27' E 012°15'0 0.0
2017-Sep-12 13:29N 45°27' E 012°15'0 0.0
2017-Sep-12 12:59N 45°27' E 012°15'0 0.0
2017-Sep-12 12:29N 45°27' E 012°15'0 0.0
2017-Sep-12 11:59N 45°27' E 012°15'0 0.0
2017-Sep-12 11:26N 45°27' E 012°15'0 0.0
2017-Sep-12 10:59N 45°27' E 012°15'0 0.0
2017-Sep-12 10:29N 45°27' E 012°15'0 0.0
2017-Sep-12 09:59N 45°27' E 012°15'0 0.0
2017-Sep-12 09:29N 45°27' E 012°15'0 0.0
2017-Sep-12 08:59N 45°27' E 012°15'0 0.0
2017-Sep-12 08:29N 45°27' E 012°15'0 0.0
2017-Sep-12 07:59N 45°27' E 012°15'0 0.0
2017-Sep-12 07:29N 45°27' E 012°15'0 0.0
2017-Sep-12 06:59N 45°27' E 012°15'0 0.0
2017-Sep-12 06:29N 45°27' E 012°15'0 0.0
2017-Sep-12 05:59N 45°27' E 012°15'0 0.9
2017-Sep-12 05:30N 45°27' E 012°16'3 6.5
2017-Sep-12 05:00N 45°24' E 012°16'4 8.0
2017-Sep-12 04:30N 45°20' E 012°18'4 8.9
2017-Sep-12 04:00N 45°19' E 012°25'2 4.4
2017-Sep-12 03:31N 45°18' E 012°27'4 7.4
2017-Sep-12 03:00N 45°17' E 012°32'510.4
2017-Sep-12 02:30N 45°14' E 012°38'510.7
2017-Sep-12 02:01N 45°10' E 012°44'611.0
2017-Sep-12 01:30N 45°07' E 012°50'612.4
2017-Sep-12 01:00N 45°01' E 012°53'611.6
2017-Sep-12 00:30N 44°55' E 012°55'612.1
2017-Sep-12 00:00N 44°50' E 012°51'612.1
2017-Sep-11 23:30N 44°44' E 012°48'611.8
2017-Sep-11 23:00N 44°38' E 012°46'612.0
2017-Sep-11 22:30N 44°33' E 012°43'5 9.8
2017-Sep-11 22:00N 44°34' E 012°37'511.0
2017-Sep-11 21:30N 44°40' E 012°37'612.0
2017-Sep-11 21:00N 44°36' E 012°43'612.1
2017-Sep-11 20:30N 44°31' E 012°49'6 9.6
2017-Sep-11 19:53N 44°25' E 012°50'512.6
2017-Sep-11 19:30N 44°26' E 012°44'612.5
2017-Sep-11 19:00N 44°28' E 012°35'7 0.5
2017-Sep-11 03:54N 44°30' E 012°26'3 7.2
2017-Sep-11 03:30N 44°29' E 012°30'1 1.0
2017-Sep-11 02:59N 44°30' E 012°30'0 0.0
2017-Sep-11 02:26N 44°30' E 012°30'0 0.0
2017-Sep-11 01:44N 44°30' E 012°30'0 0.0
2017-Sep-11 00:53N 44°30' E 012°30'0 0.1
2017-Sep-11 00:14N 44°30' E 012°30'0 0.1
2017-Sep-10 23:59N 44°30' E 012°30'0 0.1
2017-Sep-10 23:17N 44°30' E 012°30'0 0.1
2017-Sep-10 22:53N 44°30' E 012°30'0 0.0
2017-Sep-10 19:40N 44°30' E 012°30'1 3.3
2017-Sep-10 19:23N 44°30' E 012°31'1310.9
2017-Sep-10 18:13N 44°39' E 012°44'314.1
2017-Sep-10 18:00N 44°42' E 012°46'714.1
2017-Sep-10 17:30N 44°48' E 012°50'714.0
2017-Sep-10 17:00N 44°54' E 012°54'713.6
2017-Sep-10 16:30N 45°01' E 012°58'713.4
2017-Sep-10 16:00N 45°07' E 013°01'713.4
2017-Sep-10 15:30N 45°14' E 013°02'713.5
2017-Sep-10 15:00N 45°20' E 013°02'1313.5
2017-Sep-10 14:01N 45°31' E 013°13'714.3
2017-Sep-10 13:31N 45°35' E 013°22'714.4
2017-Sep-10 13:01N 45°38' E 013°32'613.0
2017-Sep-10 12:31N 45°39' E 013°41'4 7.7
2017-Sep-10 12:01N 45°38' E 013°46'0 0.1
2017-Sep-10 11:19N 45°38' E 013°46'0 0.0
2017-Sep-10 10:55N 45°38' E 013°46'0 0.0
2017-Sep-10 10:28N 45°38' E 013°46'0 0.0
2017-Sep-10 09:58N 45°38' E 013°46'0 0.0
2017-Sep-10 09:28N 45°38' E 013°46'0 0.0
2017-Sep-10 08:58N 45°38' E 013°46'0 0.0
2017-Sep-10 08:28N 45°38' E 013°46'0 0.0
2017-Sep-10 07:58N 45°38' E 013°46'0 0.0
2017-Sep-10 07:25N 45°38' E 013°46'0 0.0
2017-Sep-10 06:58N 45°38' E 013°46'0 0.0
2017-Sep-10 06:28N 45°38' E 013°46'0 0.0
2017-Sep-10 05:58N 45°38' E 013°46'0 0.0
2017-Sep-10 05:28N 45°38' E 013°46'0 0.0
2017-Sep-10 04:58N 45°38' E 013°46'0 0.0
2017-Sep-10 04:28N 45°38' E 013°46'0 0.0
2017-Sep-10 03:55N 45°38' E 013°46'0 0.0
2017-Sep-10 03:28N 45°38' E 013°46'0 0.0
2017-Sep-10 02:55N 45°38' E 013°46'0 0.0
2017-Sep-10 02:28N 45°38' E 013°46'0 0.0
2017-Sep-10 01:55N 45°38' E 013°46'0 0.0
2017-Sep-10 01:25N 45°38' E 013°46'0 0.0
2017-Sep-10 00:58N 45°38' E 013°46'0 0.0
2017-Sep-10 00:28N 45°38' E 013°46'0 0.0
2017-Sep-09 23:58N 45°38' E 013°46'0 0.0
2017-Sep-09 23:28N 45°38' E 013°46'0 0.0
2017-Sep-09 22:58N 45°38' E 013°46'0 0.0
2017-Sep-09 22:28N 45°38' E 013°46'0 0.0
2017-Sep-09 21:58N 45°38' E 013°46'0 0.0
2017-Sep-09 21:25N 45°38' E 013°46'0 0.0
2017-Sep-09 20:55N 45°38' E 013°46'0 0.0
2017-Sep-09 20:25N 45°38' E 013°46'0 0.0
2017-Sep-09 19:55N 45°38' E 013°46'0 0.0
2017-Sep-09 19:25N 45°38' E 013°46'0 0.0
2017-Sep-09 18:58N 45°38' E 013°46'0 0.0
2017-Sep-09 18:22N 45°38' E 013°46'0 0.0
2017-Sep-09 17:49N 45°38' E 013°46'0 0.3
2017-Sep-09 17:31N 45°38' E 013°46'2 5.0
2017-Sep-09 17:00N 45°39' E 013°42'4 7.7
2017-Sep-09 16:31N 45°35' E 013°39'4 7.2
2017-Sep-09 16:01N 45°33' E 013°43'1 1.0
2017-Sep-09 15:30N 45°33' E 013°44'0 0.0
2017-Sep-09 15:00N 45°33' E 013°44'0 0.0
2017-Sep-09 14:30N 45°33' E 013°44'0 0.0
2017-Sep-09 14:00N 45°33' E 013°44'0 0.0
2017-Sep-09 13:27N 45°33' E 013°44'0 0.0
2017-Sep-09 12:54N 45°33' E 013°44'0 0.0
2017-Sep-09 12:30N 45°33' E 013°44'0 0.0
2017-Sep-09 12:00N 45°33' E 013°44'0 0.0
2017-Sep-09 11:30N 45°33' E 013°44'0 0.0
2017-Sep-09 11:00N 45°33' E 013°44'0 0.0
2017-Sep-09 10:24N 45°33' E 013°44'0 0.0
2017-Sep-09 10:00N 45°33' E 013°44'0 0.0
2017-Sep-09 09:30N 45°33' E 013°44'0 0.0
2017-Sep-09 09:00N 45°33' E 013°44'0 0.0
2017-Sep-09 08:27N 45°33' E 013°44'0 0.0
2017-Sep-09 08:00N 45°33' E 013°44'0 0.0
2017-Sep-09 07:27N 45°33' E 013°44'0 0.0
2017-Sep-09 07:00N 45°33' E 013°44'0 0.0
2017-Sep-09 06:30N 45°33' E 013°44'0 0.0
2017-Sep-09 06:00N 45°33' E 013°44'0 0.0
2017-Sep-09 05:27N 45°33' E 013°44'0 0.0
2017-Sep-09 04:48N 45°33' E 013°44'0 0.0
2017-Sep-09 04:30N 45°33' E 013°44'0 0.0
2017-Sep-09 04:00N 45°33' E 013°44'0 0.0
2017-Sep-09 03:30N 45°33' E 013°44'2 3.3
2017-Sep-09 03:00N 45°34' E 013°42'3 5.8
2017-Sep-09 02:30N 45°35' E 013°38'510.7
2017-Sep-09 02:00N 45°34' E 013°30'611.5
2017-Sep-09 01:30N 45°31' E 013°24'611.5
2017-Sep-09 01:00N 45°27' E 013°18'611.6
2017-Sep-09 00:30N 45°23' E 013°12'611.5
2017-Sep-09 00:00N 45°17' E 013°13'611.6
2017-Sep-08 23:30N 45°11' E 013°15'611.5
2017-Sep-08 23:00N 45°06' E 013°18'611.7
2017-Sep-08 22:30N 45°01' E 013°21'611.7
2017-Sep-08 22:00N 44°55' E 013°26'611.6
2017-Sep-08 21:30N 44°50' E 013°30'611.6
2017-Sep-08 21:00N 44°45' E 013°34'  

Dump ship's entire track history